Time;durP1;ratioP1;P1;durP2;ratioP2;P2;SDS_P1;SDS_P2;PMS_P1;PMS_P2;Temp;Humidity;BMP_temperature;BMP_pressure;BME280_temperature;BME280_humidity;BME280_pressure;Samples;Min_cycle;Max_cycle;Signal;HPM_P1;HPM_P2
2022/02/10 00:05:35;;;;;;;5.05;2.55;;;;;;;;;;5117631;28;20046;-77
2022/02/10 00:13:46;;;;;;;3.90;1.67;;;;;;;;;;5117215;28;20049;-77
2022/02/10 00:16:33;;;;;;;;;;;;;;;;;;5117376;28;20047;-77
2022/02/10 00:19:16;;;;;;;6.60;2.00;;;;;;;;;;5117219;28;20007;-77
2022/02/10 00:21:52;;;;;;;5.20;1.98;;;;;;;;;;5118090;28;20047;-77
2022/02/10 00:24:45;;;;;;;3.05;1.52;;;;;;;;;;5117961;28;20040;-77
2022/02/10 00:35:43;;;;;;;4.30;1.70;;;;;;;;;;5117174;28;20471;-77
2022/02/10 00:38:09;;;;;;;5.13;2.22;;;;;;;;;;5116261;28;20538;-76
2022/02/10 00:40:38;;;;;;;6.75;2.15;;;;;;;;;;5116677;28;20039;-77
2022/02/10 00:43:06;;;;;;;5.88;2.10;;;;;;;;;;5116458;28;20544;-77
2022/02/10 00:45:34;;;;;;;6.28;1.85;;;;;;;;;;5116478;28;20566;-76
2022/02/10 00:48:04;;;;;;;4.35;1.85;;;;;;;;;;5117109;28;20130;-77
2022/02/10 00:50:32;;;;;;;3.92;2.05;;;;;;;;;;5117434;28;20067;-77
2022/02/10 00:53:04;;;;;;;4.03;2.03;;;;;;;;;;5117446;28;20074;-76
2022/02/10 00:55:32;;;;;;;4.10;1.88;;;;;;;;;;5117368;28;20044;-77
2022/02/10 00:58:04;;;;;;;4.75;3.17;;;;;;;;;;5117241;28;20067;-77
2022/02/10 01:12:11;;;;;;;6.35;1.90;;;;;;;;;;5116354;28;20395;-77
2022/02/10 01:31:05;;;;;;;4.88;2.20;;;;;;;;;;5115670;28;20082;-77
2022/02/10 01:33:34;;;;;;;6.13;2.35;;;;;;;;;;5116653;28;20133;-77
2022/02/10 01:36:00;;;;;;;4.25;2.00;;;;;;;;;;5116282;28;20039;-77
2022/02/10 01:38:27;;;;;;;6.65;2.00;;;;;;;;;;5116395;28;20130;-77
2022/02/10 01:41:25;;;;;;;5.25;2.33;;;;;;;;;;5116489;28;20093;-76
2022/02/10 01:58:02;;;;;;;4.85;2.17;;;;;;;;;;5115299;28;20050;-76
2022/02/10 02:03:26;;;;;;;8.35;2.55;;;;;;;;;;5115328;28;20066;-77
2022/02/10 02:05:59;;;;;;;3.42;1.90;;;;;;;;;;5115973;28;20051;-77
2022/02/10 02:08:28;;;;;;;3.58;1.90;;;;;;;;;;5114304;28;20043;-77
2022/02/10 02:10:55;;;;;;;4.75;2.35;;;;;;;;;;5115884;28;20039;-76
2022/02/10 02:13:22;;;;;;;7.57;2.42;;;;;;;;;;5115808;28;20122;-77
2022/02/10 02:15:48;;;;;;;6.82;2.47;;;;;;;;;;5114953;28;20126;-77
2022/02/10 02:18:17;;;;;;;5.22;2.22;;;;;;;;;;5115439;28;20126;-77
2022/02/10 02:20:47;;;;;;;4.78;2.47;;;;;;;;;;5114598;28;20046;-77
2022/02/10 02:23:15;;;;;;;5.57;2.65;;;;;;;;;;5114902;28;20130;-77
2022/02/10 02:25:42;;;;;;;3.75;1.90;;;;;;;;;;5114870;28;20152;-77
2022/02/10 02:28:11;;;;;;;4.68;2.40;;;;;;;;;;5115625;28;20048;-76
2022/02/10 02:30:42;;;;;;;5.28;2.40;;;;;;;;;;5114690;28;20092;-77
2022/02/10 02:33:43;;;;;;;5.60;2.47;;;;;;;;;;5115489;28;20043;-76
2022/02/10 02:39:26;;;;;;;4.72;2.28;;;;;;;;;;5114571;28;20046;-77
2022/02/10 03:04:38;;;;;;;7.60;2.78;;;;;;;;;;5114024;28;20051;-77
2022/02/10 03:07:06;;;;;;;7.40;2.78;;;;;;;;;;5114245;28;20039;-77
2022/02/10 03:09:39;;;;;;;6.57;2.92;;;;;;;;;;5074545;28;20044;-77
2022/02/10 03:12:09;;;;;;;4.93;2.63;;;;;;;;;;5074458;28;20040;-77
2022/02/10 03:14:43;;;;;;;9.07;4.45;;;;;;;;;;5074496;28;20047;-77
2022/02/10 03:20:01;;;;;;;8.27;3.00;;;;;;;;;;5073871;28;20425;-77
2022/02/10 04:04:29;;;;;;;5.28;1.70;;;;;;;;;;5151734;27;20126;-77
2022/02/10 04:12:58;;;;;;;4.53;2.03;;;;;;;;;;5151255;27;20035;-77
2022/02/10 04:15:32;;;;;;;4.38;1.77;;;;;;;;;;5153086;27;20047;-77
2022/02/10 04:20:59;;;;;;;5.03;2.55;;;;;;;;;;5151699;27;20046;-77
2022/02/10 04:23:47;;;;;;;4.47;2.03;;;;;;;;;;5151094;27;20039;-77
2022/02/10 04:26:29;;;;;;;4.53;2.13;;;;;;;;;;5153364;27;20043;-77
2022/02/10 04:29:20;;;;;;;6.55;2.17;;;;;;;;;;5153918;27;20047;-77
2022/02/10 04:37:50;;;;;;;3.45;1.80;;;;;;;;;;5139336;27;20479;-77
2022/02/10 04:57:28;;;;;;;5.25;2.15;;;;;;;;;;5138651;27;20073;-77
2022/02/10 05:00:11;;;;;;;3.85;1.58;;;;;;;;;;5140074;27;20335;-77
2022/02/10 05:03:24;;;;;;;4.38;1.95;;;;;;;;;;5138788;27;20039;-78
2022/02/10 05:06:33;;;;;;;3.95;2.10;;;;;;;;;;5137753;27;20582;-77
2022/02/10 05:17:30;;;;;;;3.92;1.80;;;;;;;;;;5138147;27;20046;-77
2022/02/10 05:20:16;;;;;;;4.40;2.20;;;;;;;;;;5139250;27;20043;-78
2022/02/10 05:23:01;;;;;;;6.35;2.15;;;;;;;;;;5139576;27;20039;-77
2022/02/10 05:33:48;;;;;;;7.90;2.38;;;;;;;;;;5138584;27;20102;-77
2022/02/10 05:36:17;;;;;;;4.88;2.20;;;;;;;;;;5139145;27;20122;-77
2022/02/10 05:38:50;;;;;;;5.47;2.35;;;;;;;;;;5139187;27;20136;-77
2022/02/10 05:44:30;;;;;;;4.65;2.50;;;;;;;;;;5139216;27;20042;-77
2022/02/10 05:50:34;;;;;;;3.13;1.73;;;;;;;;;;5137781;27;20106;-77
2022/02/10 05:55:55;;;;;;;3.22;1.90;;;;;;;;;;5138384;27;20074;-77
2022/02/10 05:58:29;;;;;;;4.47;2.08;;;;;;;;;;5138688;27;20043;-77
2022/02/10 06:51:15;;;;;;;5.78;3.17;;;;;;;;;;5134538;27;20072;-77
2022/02/10 06:53:51;;;;;;;11.32;5.05;;;;;;;;;;5136173;27;20043;-77
2022/02/10 07:04:58;;;;;;;9.15;4.70;;;;;;;;;;5133930;27;20046;-77
2022/02/10 07:07:58;;;;;;;7.18;4.55;;;;;;;;;;5134586;27;20570;-77
2022/02/10 07:10:57;;;;;;;10.57;5.68;;;;;;;;;;5135663;27;20081;-77
2022/02/10 07:47:08;;;;;;;9.18;4.60;;;;;;;;;;5117033;28;20122;-76
2022/02/10 07:58:05;;;;;;;11.00;4.00;;;;;;;;;;5121147;28;20387;-78
2022/02/10 08:00:54;;;;;;;8.68;4.10;;;;;;;;;;5131392;28;20039;-77
2022/02/10 08:50:14;;;;;;;5.03;2.92;;;;;;;;;;5114785;28;20092;-77
2022/02/10 08:55:48;;;;;;;14.10;5.10;;;;;;;;;;5127165;27;20092;-77
2022/02/10 09:06:31;;;;;;;6.80;2.97;;;;;;;;;;5125729;27;19964;-77
2022/02/10 09:48:18;;;;;;;8.65;2.63;;;;;;;;;;5116652;27;20514;-77
2022/02/10 09:56:22;;;;;;;6.47;2.65;;;;;;;;;;5116633;27;20172;-77
2022/02/10 10:01:39;;;;;;;5.03;2.28;;;;;;;;;;5134105;27;20161;-77
2022/02/10 10:04:13;;;;;;;6.40;2.75;;;;;;;;;;5130486;27;20040;-77
2022/02/10 10:07:02;;;;;;;4.45;2.08;;;;;;;;;;5118249;27;20544;-77
2022/02/10 10:09:37;;;;;;;6.63;2.72;;;;;;;;;;5115999;28;20039;-75
2022/02/10 10:12:34;;;;;;;7.85;2.63;;;;;;;;;;5131968;27;20039;-75
2022/02/10 10:21:09;;;;;;;4.07;2.22;;;;;;;;;;5114334;28;20082;-75
2022/02/10 10:23:48;;;;;;;5.57;2.33;;;;;;;;;;5116046;28;20043;-75
2022/02/10 10:26:38;;;;;;;4.88;2.30;;;;;;;;;;5114355;28;20051;-74
2022/02/10 10:51:51;;;;;;;4.55;2.33;;;;;;;;;;5102878;28;20414;-79
2022/02/10 10:54:28;;;;;;;5.18;2.58;;;;;;;;;;5123281;28;20098;-78
2022/02/10 10:56:59;;;;;;;4.93;3.00;;;;;;;;;;5100336;28;20039;-77
2022/02/10 10:59:53;;;;;;;5.38;2.35;;;;;;;;;;5113892;27;20040;-78
2022/02/10 11:38:44;;;;;;;5.70;2.47;;;;;;;;;;5134879;28;20126;-77
2022/02/10 11:41:40;;;;;;;6.82;2.80;;;;;;;;;;5135614;28;20046;-77
2022/02/10 12:31:05;;;;;;;7.03;3.10;;;;;;;;;;5116410;28;20054;-77
2022/02/10 12:39:15;;;;;;;6.97;3.08;;;;;;;;;;5120682;27;20067;-77
2022/02/10 13:25:13;;;;;;;6.95;3.50;;;;;;;;;;5117417;27;20399;-75
2022/02/10 13:28:16;;;;;;;8.35;3.40;;;;;;;;;;5081461;28;20114;-75
2022/02/10 13:48:04;;;;;;;8.18;3.42;;;;;;;;;;5091058;28;20437;-75
2022/02/10 14:09:34;;;;;;;9.77;3.67;;;;;;;;;;5094355;28;20051;-74
2022/02/10 14:14:59;;;;;;;10.15;4.20;;;;;;;;;;5094192;28;20051;-74
2022/02/10 14:17:32;;;;;;;8.40;4.35;;;;;;;;;;5094644;28;20036;-75
2022/02/10 14:20:00;;;;;;;9.82;4.22;;;;;;;;;;5095978;28;20047;-75
2022/02/10 14:22:38;;;;;;;7.68;4.20;;;;;;;;;;5095755;28;20123;-74
2022/02/10 14:27:50;;;;;;;8.98;3.95;;;;;;;;;;5094502;28;20125;-75
2022/02/10 14:30:20;;;;;;;8.77;3.58;;;;;;;;;;5095499;28;20040;-75
2022/02/10 14:32:46;;;;;;;10.80;3.80;;;;;;;;;;5095224;28;20040;-75
2022/02/10 14:35:18;;;;;;;6.18;3.17;;;;;;;;;;5093107;28;20048;-75
2022/02/10 14:38:07;;;;;;;8.40;3.58;;;;;;;;;;5090167;28;20052;-75
2022/02/10 14:40:59;;;;;;;7.50;3.25;;;;;;;;;;5100525;28;20051;-74
2022/02/10 15:10:47;;;;;;;8.95;3.88;;;;;;;;;;5114666;28;20357;-75
2022/02/10 15:11:27;;;;;;;5.88;4.07;;;;;;;;;;5114489;28;20121;-75
2022/02/10 15:17:08;;;;;;;9.30;4.15;;;;;;;;;;5113962;28;20390;-74
2022/02/10 15:53:30;;;;;;;6.55;4.00;;;;;;;;;;5130601;27;20050;-75
2022/02/10 16:18:16;;;;;;;7.25;3.53;;;;;;;;;;5130904;28;20066;-74
2022/02/10 16:20:49;;;;;;;6.18;2.90;;;;;;;;;;5133443;27;20087;-75
2022/02/10 16:23:18;;;;;;;8.85;3.55;;;;;;;;;;5131250;27;20035;-75
2022/02/10 16:25:49;;;;;;;6.93;3.80;;;;;;;;;;5130339;27;20047;-75
2022/02/10 16:28:26;;;;;;;8.98;3.72;;;;;;;;;;5131720;28;20459;-75
2022/02/10 16:30:53;;;;;;;9.35;4.28;;;;;;;;;;5132105;28;20043;-75
2022/02/10 16:33:20;;;;;;;12.90;4.95;;;;;;;;;;5132047;28;20077;-74
2022/02/10 16:35:46;;;;;;;7.30;3.72;;;;;;;;;;5132100;28;20122;-74
2022/02/10 16:38:13;;;;;;;7.47;4.78;;;;;;;;;;5130158;28;20146;-75
2022/02/10 16:40:41;;;;;;;8.38;4.10;;;;;;;;;;5131889;28;20438;-75
2022/02/10 16:43:07;;;;;;;13.60;5.05;;;;;;;;;;5131763;28;20039;-75
2022/02/10 16:45:35;;;;;;;6.82;3.90;;;;;;;;;;5131109;28;20431;-74
2022/02/10 16:48:02;;;;;;;6.20;3.80;;;;;;;;;;5131038;28;20079;-75
2022/02/10 16:50:29;;;;;;;9.23;4.55;;;;;;;;;;5117743;28;20075;-74
2022/02/10 16:52:59;;;;;;;8.20;4.88;;;;;;;;;;5117304;28;20100;-74
2022/02/10 16:55:38;;;;;;;16.17;8.30;;;;;;;;;;5117784;28;20047;-74
2022/02/10 16:58:17;;;;;;;7.88;4.97;;;;;;;;;;5117663;28;20043;-76
2022/02/10 17:01:10;;;;;;;9.48;5.18;;;;;;;;;;5116685;28;20035;-74
2022/02/10 17:03:49;;;;;;;7.68;4.97;;;;;;;;;;5118518;28;20036;-75
2022/02/10 17:17:28;;;;;;;10.65;4.70;;;;;;;;;;5115506;28;20066;-74
2022/02/10 17:20:14;;;;;;;10.25;4.85;;;;;;;;;;5116754;28;20084;-75
2022/02/10 17:25:28;;;;;;;9.18;5.57;;;;;;;;;;5116692;28;20815;-75
2022/02/10 17:27:59;;;;;;;7.90;5.05;;;;;;;;;;5116320;28;20126;-75
2022/02/10 17:33:17;;;;;;;8.30;4.75;;;;;;;;;;5116426;28;20047;-75
2022/02/10 17:36:04;;;;;;;8.20;5.38;;;;;;;;;;5116078;28;20539;-75
2022/02/10 17:41:33;;;;;;;9.55;6.47;;;;;;;;;;5116274;28;20047;-74
2022/02/10 17:44:21;;;;;;;15.50;10.48;;;;;;;;;;5117124;28;20055;-75
2022/02/10 17:51:26;;;;;;;19.48;10.82;;;;;;;;;;5115845;28;20476;-75
2022/02/10 17:52:56;;;;;;;13.65;9.13;;;;;;;;;;5115796;28;20492;-75
2022/02/10 17:55:23;;;;;;;14.20;8.27;;;;;;;;;;5116596;28;20127;-75
2022/02/10 17:57:49;;;;;;;17.90;8.55;;;;;;;;;;5116728;28;20126;-75
2022/02/10 18:00:17;;;;;;;11.63;5.60;;;;;;;;;;5115420;28;20130;-75
2022/02/10 18:02:45;;;;;;;16.13;9.77;;;;;;;;;;5116601;28;20050;-74
2022/02/10 18:05:31;;;;;;;18.20;11.23;;;;;;;;;;5114172;28;20084;-75
2022/02/10 18:07:59;;;;;;;13.10;8.88;;;;;;;;;;5115178;28;20043;-75
2022/02/10 18:11:08;;;;;;;14.85;8.52;;;;;;;;;;5120119;27;20391;-78
2022/02/10 18:13:28;;;;;;;13.60;7.90;;;;;;;;;;5114396;28;20040;-75
2022/02/10 18:15:59;;;;;;;14.70;7.85;;;;;;;;;;5131893;27;20036;-74
2022/02/10 18:18:32;;;;;;;10.82;6.35;;;;;;;;;;5129204;27;20344;-75
2022/02/10 18:21:09;;;;;;;12.52;6.43;;;;;;;;;;5112126;28;20044;-75
2022/02/10 18:23:49;;;;;;;9.55;5.78;;;;;;;;;;5119166;27;20134;-74
2022/02/10 18:26:19;;;;;;;12.25;6.00;;;;;;;;;;5115946;28;20093;-74
2022/02/10 18:28:57;;;;;;;10.10;6.10;;;;;;;;;;5113209;28;20421;-75
2022/02/10 19:07:18;;;;;;;26.77;15.10;;;;;;;;;;5115105;27;20428;-74
2022/02/10 19:09:49;;;;;;;28.25;14.25;;;;;;;;;;5133691;27;20050;-75
2022/02/10 19:12:19;;;;;;;37.28;20.20;;;;;;;;;;5117233;27;20035;-74
2022/02/10 19:14:53;;;;;;;36.17;18.60;;;;;;;;;;5115868;27;20042;-74
2022/02/10 19:17:20;;;;;;;46.17;23.38;;;;;;;;;;5117171;27;20096;-75
2022/02/10 19:19:46;;;;;;;25.75;12.73;;;;;;;;;;5112984;28;20040;-75
2022/02/10 19:22:13;;;;;;;69.88;37.95;;;;;;;;;;5115607;27;20114;-75
2022/02/10 19:24:40;;;;;;;20.85;13.07;;;;;;;;;;5111575;28;20148;-74
2022/02/10 19:27:08;;;;;;;16.73;10.93;;;;;;;;;;5115473;28;20077;-74
2022/02/10 19:29:35;;;;;;;34.55;22.48;;;;;;;;;;5111596;27;20043;-75
2022/02/10 19:32:02;;;;;;;39.55;27.10;;;;;;;;;;5113952;28;20036;-74
2022/02/10 19:34:36;;;;;;;14.93;8.85;;;;;;;;;;5126148;27;20035;-74
2022/02/10 19:37:03;;;;;;;20.70;14.98;;;;;;;;;;5110690;28;20054;-74
2022/02/10 19:39:29;;;;;;;14.13;9.20;;;;;;;;;;5118911;28;20070;-74
2022/02/10 19:41:56;;;;;;;15.98;9.70;;;;;;;;;;5135418;28;20127;-74
2022/02/10 19:44:24;;;;;;;14.50;9.02;;;;;;;;;;5127570;28;20036;-74
2022/02/10 19:46:50;;;;;;;14.93;8.52;;;;;;;;;;5111994;28;20535;-74
2022/02/10 19:49:20;;;;;;;12.48;7.45;;;;;;;;;;5126717;28;20043;-74
2022/02/10 19:51:48;;;;;;;20.63;9.98;;;;;;;;;;5134634;28;20043;-74
2022/02/10 19:54:18;;;;;;;11.43;7.72;;;;;;;;;;5118445;28;20042;-74
2022/02/10 19:56:45;;;;;;;13.82;9.00;;;;;;;;;;5114856;28;20044;-73
2022/02/10 19:59:16;;;;;;;12.38;7.93;;;;;;;;;;5118283;28;20127;-74
2022/02/10 20:01:44;;;;;;;14.43;8.30;;;;;;;;;;5114803;28;20036;-74
2022/02/10 20:04:11;;;;;;;19.15;9.45;;;;;;;;;;5116875;28;20069;-73
2022/02/10 20:06:38;;;;;;;14.90;7.70;;;;;;;;;;5112998;28;20044;-73
2022/02/10 20:09:05;;;;;;;11.95;7.40;;;;;;;;;;5122719;28;20071;-74
2022/02/10 20:11:32;;;;;;;16.55;8.30;;;;;;;;;;5112476;28;20047;-73
2022/02/10 20:13:58;;;;;;;11.93;7.13;;;;;;;;;;5112077;28;20127;-74
2022/02/10 20:16:25;;;;;;;12.52;6.88;;;;;;;;;;5111648;28;20096;-74
2022/02/10 20:18:53;;;;;;;20.92;10.23;;;;;;;;;;5114660;28;20086;-73
2022/02/10 20:21:19;;;;;;;17.02;8.85;;;;;;;;;;5115108;28;20071;-74
2022/02/10 20:23:47;;;;;;;15.95;9.90;;;;;;;;;;5114095;28;20562;-74
2022/02/10 20:26:14;;;;;;;14.30;9.50;;;;;;;;;;5115882;27;20039;-73
2022/02/10 20:28:41;;;;;;;12.68;7.07;;;;;;;;;;5118443;28;20361;-73
2022/02/10 20:31:09;;;;;;;16.27;7.47;;;;;;;;;;5133775;27;20039;-73
2022/02/10 20:33:36;;;;;;;12.70;7.55;;;;;;;;;;5137131;27;20082;-74
2022/02/10 20:36:05;;;;;;;12.23;7.05;;;;;;;;;;5130996;27;20127;-73
2022/02/10 20:38:35;;;;;;;24.10;13.13;;;;;;;;;;5137332;27;20047;-74
2022/02/10 20:41:05;;;;;;;20.08;11.20;;;;;;;;;;5139234;27;20096;-74
2022/02/10 20:43:32;;;;;;;18.85;11.63;;;;;;;;;;5138963;27;20066;-73
2022/02/10 20:46:04;;;;;;;19.73;11.07;;;;;;;;;;5136076;27;20043;-74
2022/02/10 20:48:32;;;;;;;22.95;11.25;;;;;;;;;;5114816;27;20130;-75
2022/02/10 20:50:59;;;;;;;23.13;12.70;;;;;;;;;;5133596;27;20122;-74
2022/02/10 20:53:30;;;;;;;15.98;8.30;;;;;;;;;;5118767;28;20079;-74
2022/02/10 20:55:58;;;;;;;13.95;7.43;;;;;;;;;;5116493;28;20360;-75
2022/02/10 20:58:27;;;;;;;22.30;14.32;;;;;;;;;;5121995;27;20123;-75
2022/02/10 21:00:57;;;;;;;19.35;9.82;;;;;;;;;;5117586;28;20039;-74
2022/02/10 21:03:26;;;;;;;21.05;10.32;;;;;;;;;;5120582;27;20043;-74
2022/02/10 21:06:02;;;;;;;21.63;10.07;;;;;;;;;;5119753;27;20360;-74
2022/02/10 21:08:36;;;;;;;15.45;8.57;;;;;;;;;;5125803;27;20047;-74
2022/02/10 21:11:04;;;;;;;25.38;11.93;;;;;;;;;;5118562;27;20039;-74
2022/02/10 21:13:32;;;;;;;35.75;18.48;;;;;;;;;;5121001;27;20040;-74
2022/02/10 21:15:59;;;;;;;19.33;10.32;;;;;;;;;;5114127;27;20050;-74
2022/02/10 21:18:27;;;;;;;16.20;9.50;;;;;;;;;;5117412;28;20050;-74
2022/02/10 21:20:58;;;;;;;16.73;9.40;;;;;;;;;;5127770;27;20039;-74
2022/02/10 21:23:29;;;;;;;14.10;8.25;;;;;;;;;;5131135;27;20045;-74
2022/02/10 21:25:59;;;;;;;13.45;7.65;;;;;;;;;;5125409;27;20089;-73
2022/02/10 21:28:26;;;;;;;14.30;7.85;;;;;;;;;;5117172;27;20105;-75
2022/02/10 21:30:56;;;;;;;16.20;9.55;;;;;;;;;;5130939;27;20066;-73
2022/02/10 21:33:29;;;;;;;19.25;9.15;;;;;;;;;;5118635;27;20038;-74
2022/02/10 21:36:44;;;;;;;15.55;9.15;;;;;;;;;;5117618;27;20475;-73
2022/02/10 21:39:24;;;;;;;16.25;7.78;;;;;;;;;;5112207;28;20071;-74
2022/02/10 21:42:59;;;;;;;14.13;7.60;;;;;;;;;;5116552;28;20100;-73
2022/02/10 21:48:09;;;;;;;14.10;7.60;;;;;;;;;;5114844;28;20180;-74
2022/02/10 21:54:30;;;;;;;14.23;8.15;;;;;;;;;;5114604;28;20463;-75
2022/02/10 21:59:44;;;;;;;11.65;6.35;;;;;;;;;;5115258;27;20058;-74
2022/02/10 22:10:33;;;;;;;12.57;6.40;;;;;;;;;;5114056;27;20100;-74
2022/02/10 22:18:38;;;;;;;12.10;6.85;;;;;;;;;;5134111;27;20050;-74
2022/02/10 22:21:06;;;;;;;8.75;5.70;;;;;;;;;;5117367;27;20039;-74
2022/02/10 22:23:36;;;;;;;12.93;6.63;;;;;;;;;;5113103;27;20421;-74
2022/02/10 22:26:06;;;;;;;11.88;6.10;;;;;;;;;;5115375;28;20053;-74
2022/02/10 22:28:43;;;;;;;12.60;5.47;;;;;;;;;;5115779;28;20047;-74
2022/02/10 22:31:31;;;;;;;8.32;4.75;;;;;;;;;;5124643;27;20094;-73
2022/02/10 22:34:13;;;;;;;13.35;5.90;;;;;;;;;;5116063;28;20139;-74
2022/02/10 22:36:42;;;;;;;12.90;5.10;;;;;;;;;;5126038;27;20039;-74
2022/02/10 22:39:10;;;;;;;12.82;5.50;;;;;;;;;;5110154;28;20406;-74
2022/02/10 22:41:37;;;;;;;12.35;6.20;;;;;;;;;;5131981;27;20070;-74
2022/02/10 22:44:04;;;;;;;9.80;4.85;;;;;;;;;;5114644;27;20078;-75
2022/02/10 22:46:33;;;;;;;11.18;4.53;;;;;;;;;;5114303;28;20070;-74
2022/02/10 22:49:00;;;;;;;9.05;5.10;;;;;;;;;;5120874;27;20079;-74
2022/02/10 22:51:28;;;;;;;7.38;4.28;;;;;;;;;;5114585;28;20514;-74
2022/02/10 22:53:55;;;;;;;7.47;4.30;;;;;;;;;;5115109;27;20446;-74
2022/02/10 22:56:28;;;;;;;7.97;4.40;;;;;;;;;;5112437;28;20126;-74
2022/02/10 22:58:56;;;;;;;9.80;4.20;;;;;;;;;;5112332;28;20100;-74
2022/02/10 23:01:22;;;;;;;9.20;4.60;;;;;;;;;;5115618;28;20086;-74
2022/02/10 23:03:50;;;;;;;9.13;4.45;;;;;;;;;;5113088;27;20130;-74
2022/02/10 23:06:17;;;;;;;7.50;4.07;;;;;;;;;;5113458;28;20484;-74
2022/02/10 23:08:44;;;;;;;8.30;4.13;;;;;;;;;;5115157;28;20108;-74
2022/02/10 23:11:13;;;;;;;8.77;4.78;;;;;;;;;;5125793;27;20043;-74
2022/02/10 23:13:44;;;;;;;8.57;4.55;;;;;;;;;;5115209;27;20114;-74
2022/02/10 23:16:12;;;;;;;8.95;4.25;;;;;;;;;;5113266;28;20046;-74
2022/02/10 23:18:39;;;;;;;7.07;4.10;;;;;;;;;;5114708;28;20044;-74
2022/02/10 23:21:10;;;;;;;8.93;4.43;;;;;;;;;;5120326;27;20039;-74
2022/02/10 23:23:38;;;;;;;9.38;4.50;;;;;;;;;;5115004;28;20062;-75
2022/02/10 23:26:06;;;;;;;11.85;4.40;;;;;;;;;;5123158;27;20060;-74
2022/02/10 23:28:39;;;;;;;8.13;4.28;;;;;;;;;;5129132;27;20437;-74
2022/02/10 23:31:10;;;;;;;9.00;4.07;;;;;;;;;;5119172;27;20067;-74
2022/02/10 23:33:39;;;;;;;10.57;4.80;;;;;;;;;;5115624;28;20047;-74
2022/02/10 23:36:41;;;;;;;8.85;4.07;;;;;;;;;;5113648;27;20044;-74
2022/02/10 23:39:13;;;;;;;8.15;3.88;;;;;;;;;;5113412;28;20043;-74
2022/02/10 23:41:56;;;;;;;10.35;4.18;;;;;;;;;;5113062;28;20067;-74
2022/02/10 23:44:27;;;;;;;7.57;3.65;;;;;;;;;;5114179;28;20079;-75
2022/02/10 23:46:54;;;;;;;8.38;3.92;;;;;;;;;;5129938;28;20039;-75
2022/02/10 23:49:23;;;;;;;7.85;4.05;;;;;;;;;;5133329;28;20054;-75
2022/02/10 23:51:55;;;;;;;20.38;10.77;;;;;;;;;;5113929;28;20097;-75
2022/02/10 23:54:23;;;;;;;18.83;8.48;;;;;;;;;;5115354;28;20093;-74
2022/02/10 23:56:55;;;;;;;11.35;6.40;;;;;;;;;;5120791;28;20040;-73
2022/02/10 23:59:33;;;;;;;13.88;6.22;;;;;;;;;;5115593;27;20039;-76
